sensor_id;sensor_type;location;lat;lon;timestamp;pressure;altitude;pressure_sealevel;temperature;humidity
60920;BME280;59039;52.108;19.942;2023-04-01T00:01:03;98689.36;;;10.89;82.44
60920;BME280;59039;52.108;19.942;2023-04-01T00:03:36;98685.26;;;10.87;82.34
60920;BME280;59039;52.108;19.942;2023-04-01T00:06:01;98685.99;;;10.86;82.57
60920;BME280;59039;52.108;19.942;2023-04-01T00:08:27;98685.95;;;10.86;82.35
60920;BME280;59039;52.108;19.942;2023-04-01T00:11:03;98680.65;;;10.85;82.63
60920;BME280;59039;52.108;19.942;2023-04-01T00:13:29;98684.23;;;10.84;83.11
60920;BME280;59039;52.108;19.942;2023-04-01T00:15:57;98683.19;;;10.84;82.92
60920;BME280;59039;52.108;19.942;2023-04-01T00:18:23;98682.80;;;10.84;83.00
60920;BME280;59039;52.108;19.942;2023-04-01T00:20:49;98679.92;;;10.84;82.71
60920;BME280;59039;52.108;19.942;2023-04-01T00:23:15;98682.71;;;10.83;82.95
60920;BME280;59039;52.108;19.942;2023-04-01T00:28:20;98678.60;;;10.81;82.78
60920;BME280;59039;52.108;19.942;2023-04-01T00:30:46;98680.21;;;10.80;82.68
60920;BME280;59039;52.108;19.942;2023-04-01T00:33:12;98681.39;;;10.78;82.50
60920;BME280;59039;52.108;19.942;2023-04-01T00:35:39;98677.82;;;10.76;82.58
60920;BME280;59039;52.108;19.942;2023-04-01T00:38:05;98677.48;;;10.75;82.59
60920;BME280;59039;52.108;19.942;2023-04-01T00:40:45;98676.14;;;10.74;82.71
60920;BME280;59039;52.108;19.942;2023-04-01T00:43:14;98674.52;;;10.72;82.59
60920;BME280;59039;52.108;19.942;2023-04-01T00:45:43;98671.63;;;10.70;82.49
60920;BME280;59039;52.108;19.942;2023-04-01T00:48:11;98671.48;;;10.67;82.19
60920;BME280;59039;52.108;19.942;2023-04-01T00:50:40;98668.70;;;10.63;82.39
60920;BME280;59039;52.108;19.942;2023-04-01T00:56:11;98667.73;;;10.58;82.44
60920;BME280;59039;52.108;19.942;2023-04-01T00:58:40;98665.33;;;10.55;82.87
60920;BME280;59039;52.108;19.942;2023-04-01T01:01:08;98664.02;;;10.53;82.47
60920;BME280;59039;52.108;19.942;2023-04-01T01:03:35;98661.96;;;10.51;82.39
60920;BME280;59039;52.108;19.942;2023-04-01T01:06:20;98658.14;;;10.49;82.72
60920;BME280;59039;52.108;19.942;2023-04-01T01:09:06;98654.62;;;10.47;82.78
60920;BME280;59039;52.108;19.942;2023-04-01T01:11:40;98656.79;;;10.45;82.99
60920;BME280;59039;52.108;19.942;2023-04-01T01:14:23;98658.49;;;10.44;82.74
60920;BME280;59039;52.108;19.942;2023-04-01T01:16:54;98659.45;;;10.43;82.72
60920;BME280;59039;52.108;19.942;2023-04-01T01:22:16;98660.98;;;10.38;82.66
60920;BME280;59039;52.108;19.942;2023-04-01T01:27:40;98653.77;;;10.31;82.41
60920;BME280;59039;52.108;19.942;2023-04-01T01:33:19;98644.17;;;10.25;82.70
60920;BME280;59039;52.108;19.942;2023-04-01T01:35:54;98644.45;;;10.22;82.79
60920;BME280;59039;52.108;19.942;2023-04-01T01:38:27;98646.23;;;10.20;82.57
60920;BME280;59039;52.108;19.942;2023-04-01T01:40:58;98645.58;;;10.17;82.59
60920;BME280;59039;52.108;19.942;2023-04-01T01:43:33;98643.09;;;10.15;82.72
60920;BME280;59039;52.108;19.942;2023-04-01T01:46:02;98643.08;;;10.14;82.94
60920;BME280;59039;52.108;19.942;2023-04-01T01:48:33;98639.52;;;10.13;82.95
60920;BME280;59039;52.108;19.942;2023-04-01T01:51:02;98639.02;;;10.13;82.83
60920;BME280;59039;52.108;19.942;2023-04-01T01:53:28;98637.88;;;10.12;83.03
60920;BME280;59039;52.108;19.942;2023-04-01T01:55:56;98637.02;;;10.12;83.25
60920;BME280;59039;52.108;19.942;2023-04-01T02:01:02;98641.52;;;10.11;82.85
60920;BME280;59039;52.108;19.942;2023-04-01T02:03:32;98642.21;;;10.09;82.84
60920;BME280;59039;52.108;19.942;2023-04-01T02:06:02;98639.61;;;10.08;82.65
60920;BME280;59039;52.108;19.942;2023-04-01T02:08:42;98636.17;;;10.07;82.65
60920;BME280;59039;52.108;19.942;2023-04-01T02:11:12;98635.62;;;10.05;82.78
60920;BME280;59039;52.108;19.942;2023-04-01T02:16:49;98632.54;;;10.01;82.58
60920;BME280;59039;52.108;19.942;2023-04-01T02:19:16;98639.61;;;9.98;82.61
60920;BME280;59039;52.108;19.942;2023-04-01T02:21:42;98645.22;;;9.97;82.58
60920;BME280;59039;52.108;19.942;2023-04-01T02:24:12;98645.30;;;9.96;82.77
60920;BME280;59039;52.108;19.942;2023-04-01T02:26:39;98643.21;;;9.96;82.81
60920;BME280;59039;52.108;19.942;2023-04-01T02:29:17;98644.52;;;9.94;82.61
60920;BME280;59039;52.108;19.942;2023-04-01T02:31:44;98647.60;;;9.92;82.58
60920;BME280;59039;52.108;19.942;2023-04-01T02:34:23;98644.55;;;9.91;82.48
60920;BME280;59039;52.108;19.942;2023-04-01T02:36:50;98640.81;;;9.89;82.54
60920;BME280;59039;52.108;19.942;2023-04-01T02:39:16;98641.55;;;9.87;82.48
60920;BME280;59039;52.108;19.942;2023-04-01T02:41:53;98640.28;;;9.86;82.48
60920;BME280;59039;52.108;19.942;2023-04-01T02:44:29;98647.32;;;9.84;82.73
60920;BME280;59039;52.108;19.942;2023-04-01T02:46:54;98649.40;;;9.84;82.64
60920;BME280;59039;52.108;19.942;2023-04-01T02:49:22;98655.37;;;9.84;82.62
60920;BME280;59039;52.108;19.942;2023-04-01T02:54:23;98657.27;;;9.81;82.82
60920;BME280;59039;52.108;19.942;2023-04-01T02:56:57;98658.36;;;9.81;82.63
60920;BME280;59039;52.108;19.942;2023-04-01T02:59:28;98657.98;;;9.82;82.79
60920;BME280;59039;52.108;19.942;2023-04-01T03:01:58;98657.20;;;9.82;82.74
60920;BME280;59039;52.108;19.942;2023-04-01T03:04:24;98661.23;;;9.82;82.67
60920;BME280;59039;52.108;19.942;2023-04-01T03:06:52;98666.60;;;9.81;82.87
60920;BME280;59039;52.108;19.942;2023-04-01T03:09:20;98669.23;;;9.80;82.81
60920;BME280;59039;52.108;19.942;2023-04-01T03:11:56;98667.12;;;9.78;82.67
60920;BME280;59039;52.108;19.942;2023-04-01T03:14:22;98669.85;;;9.76;82.82
60920;BME280;59039;52.108;19.942;2023-04-01T03:16:57;98667.24;;;9.77;82.67
60920;BME280;59039;52.108;19.942;2023-04-01T03:19:22;98665.98;;;9.77;82.74
60920;BME280;59039;52.108;19.942;2023-04-01T03:21:48;98668.90;;;9.77;82.59
60920;BME280;59039;52.108;19.942;2023-04-01T03:24:13;98667.67;;;9.75;82.67
60920;BME280;59039;52.108;19.942;2023-04-01T03:26:59;98663.12;;;9.74;82.79
60920;BME280;59039;52.108;19.942;2023-04-01T03:29:26;98663.16;;;9.74;82.86
60920;BME280;59039;52.108;19.942;2023-04-01T03:31:55;98663.64;;;9.73;82.57
60920;BME280;59039;52.108;19.942;2023-04-01T03:36:59;98664.45;;;9.70;82.85
60920;BME280;59039;52.108;19.942;2023-04-01T03:39:25;98662.12;;;9.70;82.71
60920;BME280;59039;52.108;19.942;2023-04-01T03:41:50;98667.05;;;9.70;82.83
60920;BME280;59039;52.108;19.942;2023-04-01T03:44:16;98667.28;;;9.69;82.82
60920;BME280;59039;52.108;19.942;2023-04-01T03:46:41;98666.30;;;9.67;82.65
60920;BME280;59039;52.108;19.942;2023-04-01T03:49:09;98670.38;;;9.66;82.78
60920;BME280;59039;52.108;19.942;2023-04-01T03:51:35;98665.95;;;9.66;82.93
60920;BME280;59039;52.108;19.942;2023-04-01T03:54:00;98671.25;;;9.65;82.87
60920;BME280;59039;52.108;19.942;2023-04-01T03:56:29;98674.74;;;9.65;83.07
60920;BME280;59039;52.108;19.942;2023-04-01T03:59:01;98675.57;;;9.64;83.10
60920;BME280;59039;52.108;19.942;2023-04-01T04:01:30;98677.45;;;9.64;82.95
60920;BME280;59039;52.108;19.942;2023-04-01T04:03:56;98680.13;;;9.64;82.85
60920;BME280;59039;52.108;19.942;2023-04-01T04:06:24;98682.54;;;9.63;83.15
60920;BME280;59039;52.108;19.942;2023-04-01T04:08:50;98685.62;;;9.63;83.19
60920;BME280;59039;52.108;19.942;2023-04-01T04:11:16;98690.17;;;9.63;82.97
60920;BME280;59039;52.108;19.942;2023-04-01T04:13:45;98696.23;;;9.64;83.00
60920;BME280;59039;52.108;19.942;2023-04-01T04:16:11;98699.28;;;9.64;82.94
60920;BME280;59039;52.108;19.942;2023-04-01T04:18:48;98696.52;;;9.64;83.02
60920;BME280;59039;52.108;19.942;2023-04-01T04:21:16;98696.15;;;9.64;83.18
60920;BME280;59039;52.108;19.942;2023-04-01T04:23:49;98692.77;;;9.64;83.11
60920;BME280;59039;52.108;19.942;2023-04-01T04:26:17;98696.77;;;9.64;83.11
60920;BME280;59039;52.108;19.942;2023-04-01T04:28:42;98702.06;;;9.63;83.13
60920;BME280;59039;52.108;19.942;2023-04-01T04:31:08;98702.14;;;9.62;83.20
60920;BME280;59039;52.108;19.942;2023-04-01T04:33:34;98702.70;;;9.62;83.12
60920;BME280;59039;52.108;19.942;2023-04-01T04:35:59;98698.58;;;9.62;83.04
60920;BME280;59039;52.108;19.942;2023-04-01T04:38:25;98702.29;;;9.61;82.87
60920;BME280;59039;52.108;19.942;2023-04-01T04:40:51;98698.73;;;9.59;83.04
60920;BME280;59039;52.108;19.942;2023-04-01T04:43:17;98700.73;;;9.59;83.23
60920;BME280;59039;52.108;19.942;2023-04-01T04:45:43;98703.67;;;9.59;83.00
60920;BME280;59039;52.108;19.942;2023-04-01T04:48:10;98703.92;;;9.58;83.33
60920;BME280;59039;52.108;19.942;2023-04-01T04:50:41;98702.48;;;9.58;83.15
60920;BME280;59039;52.108;19.942;2023-04-01T04:53:09;98705.46;;;9.58;83.22
60920;BME280;59039;52.108;19.942;2023-04-01T04:55:35;98705.58;;;9.57;83.43
60920;BME280;59039;52.108;19.942;2023-04-01T04:58:00;98705.16;;;9.57;83.06
60920;BME280;59039;52.108;19.942;2023-04-01T05:00:26;98708.58;;;9.56;83.21
60920;BME280;59039;52.108;19.942;2023-04-01T05:02:51;98707.92;;;9.55;83.23
60920;BME280;59039;52.108;19.942;2023-04-01T05:05:19;98711.35;;;9.55;83.33
60920;BME280;59039;52.108;19.942;2023-04-01T05:07:47;98710.82;;;9.55;83.30
60920;BME280;59039;52.108;19.942;2023-04-01T05:10:12;98712.80;;;9.55;83.26
60920;BME280;59039;52.108;19.942;2023-04-01T05:12:38;98707.85;;;9.54;83.45
60920;BME280;59039;52.108;19.942;2023-04-01T05:15:07;98710.60;;;9.55;83.51
60920;BME280;59039;52.108;19.942;2023-04-01T05:17:35;98711.23;;;9.56;83.66
60920;BME280;59039;52.108;19.942;2023-04-01T05:20:01;98710.88;;;9.58;83.73
60920;BME280;59039;52.108;19.942;2023-04-01T05:22:26;98709.01;;;9.58;83.56
60920;BME280;59039;52.108;19.942;2023-04-01T05:24:54;98710.66;;;9.59;83.57
60920;BME280;59039;52.108;19.942;2023-04-01T05:27:20;98710.37;;;9.60;83.56
60920;BME280;59039;52.108;19.942;2023-04-01T05:29:48;98708.76;;;9.61;83.60
60920;BME280;59039;52.108;19.942;2023-04-01T05:32:13;98706.48;;;9.62;83.68
60920;BME280;59039;52.108;19.942;2023-04-01T05:34:42;98708.32;;;9.64;83.59
60920;BME280;59039;52.108;19.942;2023-04-01T05:37:08;98710.69;;;9.65;83.75
60920;BME280;59039;52.108;19.942;2023-04-01T05:40:00;98712.90;;;9.66;83.60
60920;BME280;59039;52.108;19.942;2023-04-01T05:42:25;98712.15;;;9.67;83.71
60920;BME280;59039;52.108;19.942;2023-04-01T05:44:53;98711.46;;;9.68;83.42
60920;BME280;59039;52.108;19.942;2023-04-01T05:47:18;98710.83;;;9.67;83.44
60920;BME280;59039;52.108;19.942;2023-04-01T05:49:44;98711.27;;;9.66;83.37
60920;BME280;59039;52.108;19.942;2023-04-01T05:52:09;98708.81;;;9.66;83.39
60920;BME280;59039;52.108;19.942;2023-04-01T05:54:35;98710.52;;;9.66;83.39
60920;BME280;59039;52.108;19.942;2023-04-01T05:57:01;98712.86;;;9.67;83.43
60920;BME280;59039;52.108;19.942;2023-04-01T05:59:29;98714.38;;;9.67;83.77
60920;BME280;59039;52.108;19.942;2023-04-01T06:02:03;98713.65;;;9.69;83.77
60920;BME280;59039;52.108;19.942;2023-04-01T06:04:37;98720.33;;;9.70;83.60
60920;BME280;59039;52.108;19.942;2023-04-01T06:07:16;98722.05;;;9.71;83.46
60920;BME280;59039;52.108;19.942;2023-04-01T06:09:42;98723.10;;;9.71;83.57
60920;BME280;59039;52.108;19.942;2023-04-01T06:12:36;98724.69;;;9.72;83.62
60920;BME280;59039;52.108;19.942;2023-04-01T06:15:17;98728.08;;;9.72;83.47
60920;BME280;59039;52.108;19.942;2023-04-01T06:17:52;98724.98;;;9.71;83.33
60920;BME280;59039;52.108;19.942;2023-04-01T06:39:58;98735.39;;;9.80;84.34
60920;BME280;59039;52.108;19.942;2023-04-01T06:45:37;98737.13;;;9.85;84.12
60920;BME280;59039;52.108;19.942;2023-04-01T06:51:07;98734.52;;;9.89;84.10
60920;BME280;59039;52.108;19.942;2023-04-01T06:56:41;98730.89;;;9.92;84.16
60920;BME280;59039;52.108;19.942;2023-04-01T07:02:05;98733.83;;;9.94;83.72
60920;BME280;59039;52.108;19.942;2023-04-01T07:04:46;98739.23;;;9.96;83.77
60920;BME280;59039;52.108;19.942;2023-04-01T07:07:36;98743.64;;;9.97;83.97
60920;BME280;59039;52.108;19.942;2023-04-01T07:10:12;98743.38;;;9.99;83.94
60920;BME280;59039;52.108;19.942;2023-04-01T07:12:52;98744.30;;;10.00;84.05
60920;BME280;59039;52.108;19.942;2023-04-01T07:15:26;98746.86;;;10.01;83.90
60920;BME280;59039;52.108;19.942;2023-04-01T07:17:57;98748.37;;;10.02;84.11
60920;BME280;59039;52.108;19.942;2023-04-01T07:20:32;98748.50;;;10.02;84.17
60920;BME280;59039;52.108;19.942;2023-04-01T07:23:02;98746.00;;;10.02;83.98
60920;BME280;59039;52.108;19.942;2023-04-01T07:25:34;98748.08;;;10.02;84.34
60920;BME280;59039;52.108;19.942;2023-04-01T07:28:12;98749.28;;;10.01;84.62
60920;BME280;59039;52.108;19.942;2023-04-01T07:31:09;98754.16;;;10.01;84.80
60920;BME280;59039;52.108;19.942;2023-04-01T07:33:50;98749.48;;;10.01;84.33
60920;BME280;59039;52.108;19.942;2023-04-01T07:39:34;98748.86;;;10.01;85.03
60920;BME280;59039;52.108;19.942;2023-04-01T07:42:13;98747.21;;;10.00;85.14
60920;BME280;59039;52.108;19.942;2023-04-01T08:01:02;98753.73;;;10.12;84.86
60920;BME280;59039;52.108;19.942;2023-04-01T08:09:00;98756.38;;;10.15;85.49
60920;BME280;59039;52.108;19.942;2023-04-01T08:22:43;98770.14;;;10.27;84.81
60920;BME280;59039;52.108;19.942;2023-04-01T08:25:25;98768.11;;;10.28;84.71
60920;BME280;59039;52.108;19.942;2023-04-01T08:27:57;98773.52;;;10.29;84.95
60920;BME280;59039;52.108;19.942;2023-04-01T08:30:31;98770.95;;;10.31;84.82
60920;BME280;59039;52.108;19.942;2023-04-01T08:33:21;98771.66;;;10.33;84.37
60920;BME280;59039;52.108;19.942;2023-04-01T08:35:57;98771.46;;;10.35;84.22
60920;BME280;59039;52.108;19.942;2023-04-01T08:38:43;98773.19;;;10.36;84.39
60920;BME280;59039;52.108;19.942;2023-04-01T08:43:51;98775.88;;;10.37;84.56
60920;BME280;59039;52.108;19.942;2023-04-01T08:49:11;98777.06;;;10.35;84.33
60920;BME280;59039;52.108;19.942;2023-04-01T08:55:00;98783.34;;;10.36;84.13
60920;BME280;59039;52.108;19.942;2023-04-01T09:00:31;98785.81;;;10.36;84.42
60920;BME280;59039;52.108;19.942;2023-04-01T09:08:36;98785.92;;;10.42;84.41
60920;BME280;59039;52.108;19.942;2023-04-01T09:13:51;98785.71;;;10.47;84.76
60920;BME280;59039;52.108;19.942;2023-04-01T09:16:51;98786.15;;;10.49;84.80
60920;BME280;59039;52.108;19.942;2023-04-01T09:22:30;98789.45;;;10.55;84.43
60920;BME280;59039;52.108;19.942;2023-04-01T09:25:26;98791.77;;;10.56;84.52
60920;BME280;59039;52.108;19.942;2023-04-01T09:28:08;98789.59;;;10.56;84.31
60920;BME280;59039;52.108;19.942;2023-04-01T09:33:42;98794.89;;;10.55;84.58
60920;BME280;59039;52.108;19.942;2023-04-01T09:36:28;98794.96;;;10.54;84.47
60920;BME280;59039;52.108;19.942;2023-04-01T09:39:34;98791.35;;;10.52;84.08
60920;BME280;59039;52.108;19.942;2023-04-01T09:44:36;98797.08;;;10.56;84.64
60920;BME280;59039;52.108;19.942;2023-04-01T09:53:07;98796.14;;;10.68;85.16
60920;BME280;59039;52.108;19.942;2023-04-01T09:58:39;98792.98;;;10.80;84.57
60920;BME280;59039;52.108;19.942;2023-04-01T10:18:09;98803.02;;;11.10;84.28
60920;BME280;59039;52.108;19.942;2023-04-01T10:32:51;98804.55;;;11.40;84.48
60920;BME280;59039;52.108;19.942;2023-04-01T10:55:00;98803.55;;;11.93;80.11
60920;BME280;59039;52.108;19.942;2023-04-01T10:58:01;98800.38;;;11.99;80.08
60920;BME280;59039;52.108;19.942;2023-04-01T11:15:22;98815.66;;;12.16;77.15
60920;BME280;59039;52.108;19.942;2023-04-01T11:18:15;98818.91;;;12.19;76.92
60920;BME280;59039;52.108;19.942;2023-04-01T11:26:49;98821.80;;;12.22;76.06
60920;BME280;59039;52.108;19.942;2023-04-01T11:40:56;98823.86;;;12.27;73.53
60920;BME280;59039;52.108;19.942;2023-04-01T11:43:36;98827.02;;;12.29;73.84
60920;BME280;59039;52.108;19.942;2023-04-01T11:46:24;98825.81;;;12.31;74.31
60920;BME280;59039;52.108;19.942;2023-04-01T11:49:29;98828.33;;;12.31;74.76
60920;BME280;59039;52.108;19.942;2023-04-01T12:06:21;98840.61;;;12.45;76.74
60920;BME280;59039;52.108;19.942;2023-04-01T12:28:25;98846.64;;;12.33;73.18
60920;BME280;59039;52.108;19.942;2023-04-01T12:31:18;98849.46;;;12.36;74.35
60920;BME280;59039;52.108;19.942;2023-04-01T12:33:58;98851.65;;;12.42;73.00
60920;BME280;59039;52.108;19.942;2023-04-01T12:39:37;98851.13;;;12.43;72.69
60920;BME280;59039;52.108;19.942;2023-04-01T12:42:35;98854.77;;;12.46;73.70
60920;BME280;59039;52.108;19.942;2023-04-01T12:56:39;98870.91;;;12.46;75.11
60920;BME280;59039;52.108;19.942;2023-04-01T13:02:11;98879.45;;;12.43;75.09
60920;BME280;59039;52.108;19.942;2023-04-01T13:04:44;98878.83;;;12.35;74.60
60920;BME280;59039;52.108;19.942;2023-04-01T13:07:33;98882.34;;;12.31;75.02
60920;BME280;59039;52.108;19.942;2023-04-01T13:15:35;98891.09;;;12.27;76.30
60920;BME280;59039;52.108;19.942;2023-04-01T13:20:55;98898.84;;;12.19;75.73
60920;BME280;59039;52.108;19.942;2023-04-01T13:23:42;98902.59;;;12.14;75.97
60920;BME280;59039;52.108;19.942;2023-04-01T13:29:04;98909.88;;;12.04;75.02
60920;BME280;59039;52.108;19.942;2023-04-01T13:35:00;98917.02;;;11.98;75.69
60920;BME280;59039;52.108;19.942;2023-04-01T13:37:57;98924.19;;;11.96;76.05
60920;BME280;59039;52.108;19.942;2023-04-01T13:40:58;98928.73;;;11.91;76.16
60920;BME280;59039;52.108;19.942;2023-04-01T13:43:44;98934.39;;;11.87;76.68
60920;BME280;59039;52.108;19.942;2023-04-01T13:46:23;98933.76;;;11.82;76.87
60920;BME280;59039;52.108;19.942;2023-04-01T13:54:26;98949.48;;;11.78;76.18
60920;BME280;59039;52.108;19.942;2023-04-01T13:57:05;98952.05;;;11.77;74.71
60920;BME280;59039;52.108;19.942;2023-04-01T14:03:30;98958.15;;;11.73;75.72
60920;BME280;59039;52.108;19.942;2023-04-01T14:11:28;98966.23;;;11.70;75.52
60920;BME280;59039;52.108;19.942;2023-04-01T14:25:31;98981.20;;;11.68;74.73
60920;BME280;59039;52.108;19.942;2023-04-01T14:39:59;98992.34;;;11.65;75.09
60920;BME280;59039;52.108;19.942;2023-04-01T14:48:31;99009.83;;;11.53;76.15
60920;BME280;59039;52.108;19.942;2023-04-01T14:50:47;99015.36;;;11.51;76.73
60920;BME280;59039;52.108;19.942;2023-04-01T14:53:31;99021.25;;;11.49;77.19
60920;BME280;59039;52.108;19.942;2023-04-01T14:56:00;99022.27;;;11.45;77.67
60920;BME280;59039;52.108;19.942;2023-04-01T15:04:26;99031.95;;;11.19;78.15
60920;BME280;59039;52.108;19.942;2023-04-01T15:07:21;99031.48;;;11.09;78.04
60920;BME280;59039;52.108;19.942;2023-04-01T15:10:05;99033.27;;;11.02;78.41
60920;BME280;59039;52.108;19.942;2023-04-01T15:15:47;99042.94;;;10.95;78.08
60920;BME280;59039;52.108;19.942;2023-04-01T15:18:21;99047.08;;;10.91;77.64
60920;BME280;59039;52.108;19.942;2023-04-01T15:29:25;99070.52;;;10.85;77.41
60920;BME280;59039;52.108;19.942;2023-04-01T15:32:17;99074.19;;;10.85;77.94
60920;BME280;59039;52.108;19.942;2023-04-01T15:37:57;99082.36;;;10.75;78.87
60920;BME280;59039;52.108;19.942;2023-04-01T15:43:42;99092.48;;;10.68;79.33
60920;BME280;59039;52.108;19.942;2023-04-01T15:57:12;99108.27;;;10.54;79.71
60920;BME280;59039;52.108;19.942;2023-04-01T16:02:49;99119.30;;;10.47;80.05
60920;BME280;59039;52.108;19.942;2023-04-01T16:08:17;99133.63;;;10.36;79.56
60920;BME280;59039;52.108;19.942;2023-04-01T16:13:42;99152.27;;;10.18;79.86
60920;BME280;59039;52.108;19.942;2023-04-01T16:21:58;99170.31;;;9.95;80.62
60920;BME280;59039;52.108;19.942;2023-04-01T16:24:43;99175.29;;;9.91;80.61
60920;BME280;59039;52.108;19.942;2023-04-01T16:33:10;99187.58;;;9.79;80.77
60920;BME280;59039;52.108;19.942;2023-04-01T16:38:39;99197.92;;;9.70;80.48
60920;BME280;59039;52.108;19.942;2023-04-01T16:41:31;99203.05;;;9.61;80.78
60920;BME280;59039;52.108;19.942;2023-04-01T16:44:26;99210.48;;;9.55;80.90
60920;BME280;59039;52.108;19.942;2023-04-01T16:46:53;99209.20;;;9.49;81.07
60920;BME280;59039;52.108;19.942;2023-04-01T16:49:30;99215.98;;;9.48;81.01
60920;BME280;59039;52.108;19.942;2023-04-01T16:57:28;99231.16;;;9.42;81.23
60920;BME280;59039;52.108;19.942;2023-04-01T17:03:13;99243.02;;;9.36;81.55
60920;BME280;59039;52.108;19.942;2023-04-01T17:05:52;99248.35;;;9.33;81.56
60920;BME280;59039;52.108;19.942;2023-04-01T17:08:29;99252.64;;;9.30;81.30
60920;BME280;59039;52.108;19.942;2023-04-01T17:13:42;99255.62;;;9.24;81.49
60920;BME280;59039;52.108;19.942;2023-04-01T17:16:28;99257.95;;;9.19;81.77
60920;BME280;59039;52.108;19.942;2023-04-01T17:19:37;99259.52;;;9.16;82.02
60920;BME280;59039;52.108;19.942;2023-04-01T17:22:33;99266.12;;;9.12;82.22
60920;BME280;59039;52.108;19.942;2023-04-01T17:30:52;99275.71;;;9.11;83.02
60920;BME280;59039;52.108;19.942;2023-04-01T17:39:42;99285.84;;;9.07;82.88
60920;BME280;59039;52.108;19.942;2023-04-01T17:42:14;99297.43;;;9.07;83.22
60920;BME280;59039;52.108;19.942;2023-04-01T17:50:48;99309.80;;;9.01;82.99
60920;BME280;59039;52.108;19.942;2023-04-01T17:56:32;99321.92;;;8.97;82.84
60920;BME280;59039;52.108;19.942;2023-04-01T17:59:16;99325.34;;;8.95;82.86
60920;BME280;59039;52.108;19.942;2023-04-01T18:04:43;99333.88;;;8.93;82.77
60920;BME280;59039;52.108;19.942;2023-04-01T18:12:36;99350.04;;;8.78;82.59
60920;BME280;59039;52.108;19.942;2023-04-01T18:18:48;99361.31;;;8.73;82.90
60920;BME280;59039;52.108;19.942;2023-04-01T18:21:41;99367.52;;;8.73;83.25
60920;BME280;59039;52.108;19.942;2023-04-01T18:24:19;99373.91;;;8.71;83.56
60920;BME280;59039;52.108;19.942;2023-04-01T18:27:15;99376.72;;;8.70;83.29
60920;BME280;59039;52.108;19.942;2023-04-01T18:30:30;99383.25;;;8.68;83.16
60920;BME280;59039;52.108;19.942;2023-04-01T18:32:52;99384.94;;;8.64;83.35
60920;BME280;59039;52.108;19.942;2023-04-01T18:35:44;99387.20;;;8.60;83.06
60920;BME280;59039;52.108;19.942;2023-04-01T18:38:15;99388.92;;;8.52;83.43
60920;BME280;59039;52.108;19.942;2023-04-01T18:41:12;99392.64;;;8.48;83.62
60920;BME280;59039;52.108;19.942;2023-04-01T18:43:43;99399.09;;;8.45;83.50
60920;BME280;59039;52.108;19.942;2023-04-01T18:46:24;99399.15;;;8.41;83.28
60920;BME280;59039;52.108;19.942;2023-04-01T18:49:39;99403.04;;;8.38;83.40
60920;BME280;59039;52.108;19.942;2023-04-01T18:52:37;99407.70;;;8.33;83.62
60920;BME280;59039;52.108;19.942;2023-04-01T19:00:32;99426.87;;;8.25;83.42
60920;BME280;59039;52.108;19.942;2023-04-01T19:03:12;99428.69;;;8.23;83.46
60920;BME280;59039;52.108;19.942;2023-04-01T19:05:45;99431.36;;;8.22;83.48
60920;BME280;59039;52.108;19.942;2023-04-01T19:08:33;99436.83;;;8.20;83.58
60920;BME280;59039;52.108;19.942;2023-04-01T19:11:08;99443.55;;;8.19;83.61
60920;BME280;59039;52.108;19.942;2023-04-01T19:13:38;99448.61;;;8.17;83.71
60920;BME280;59039;52.108;19.942;2023-04-01T19:35:19;99482.73;;;7.91;83.59
60920;BME280;59039;52.108;19.942;2023-04-01T19:38:14;99486.69;;;7.91;83.61
60920;BME280;59039;52.108;19.942;2023-04-01T19:44:09;99495.12;;;7.90;83.53
60920;BME280;59039;52.108;19.942;2023-04-01T19:46:44;99497.86;;;7.88;83.55
60920;BME280;59039;52.108;19.942;2023-04-01T19:52:23;99503.86;;;7.83;83.53
60920;BME280;59039;52.108;19.942;2023-04-01T19:58:23;99508.36;;;7.79;83.79
60920;BME280;59039;52.108;19.942;2023-04-01T20:00:57;99516.10;;;7.78;83.96
60920;BME280;59039;52.108;19.942;2023-04-01T20:06:55;99521.27;;;7.71;83.73
60920;BME280;59039;52.108;19.942;2023-04-01T20:09:42;99526.45;;;7.71;83.95
60920;BME280;59039;52.108;19.942;2023-04-01T20:14:58;99528.42;;;7.70;83.44
60920;BME280;59039;52.108;19.942;2023-04-01T20:17:33;99526.39;;;7.68;83.43
60920;BME280;59039;52.108;19.942;2023-04-01T20:25:16;99529.77;;;7.62;83.54
60920;BME280;59039;52.108;19.942;2023-04-01T20:36:58;99547.52;;;7.50;83.39
60920;BME280;59039;52.108;19.942;2023-04-01T20:44:51;99560.73;;;7.41;83.34
60920;BME280;59039;52.108;19.942;2023-04-01T20:47:50;99562.17;;;7.36;83.24
60920;BME280;59039;52.108;19.942;2023-04-01T20:50:34;99565.84;;;7.30;82.95
60920;BME280;59039;52.108;19.942;2023-04-01T21:05:00;99574.63;;;7.23;83.31
60920;BME280;59039;52.108;19.942;2023-04-01T21:07:42;99581.39;;;7.24;83.23
60920;BME280;59039;52.108;19.942;2023-04-01T21:19:24;99596.27;;;7.25;83.25
60920;BME280;59039;52.108;19.942;2023-04-01T21:36:25;99609.19;;;7.07;82.66
60920;BME280;59039;52.108;19.942;2023-04-01T21:38:56;99607.59;;;7.03;82.60
60920;BME280;59039;52.108;19.942;2023-04-01T21:59:24;99618.36;;;6.95;83.08
60920;BME280;59039;52.108;19.942;2023-04-01T22:07:32;99632.06;;;6.91;83.48
60920;BME280;59039;52.108;19.942;2023-04-01T22:10:19;99635.73;;;6.90;83.73
60920;BME280;59039;52.108;19.942;2023-04-01T22:13:20;99643.89;;;6.87;83.69
60920;BME280;59039;52.108;19.942;2023-04-01T22:18:49;99640.52;;;6.82;83.94
60920;BME280;59039;52.108;19.942;2023-04-01T22:24:28;99644.84;;;6.76;84.04
60920;BME280;59039;52.108;19.942;2023-04-01T22:30:20;99644.63;;;6.75;84.32
60920;BME280;59039;52.108;19.942;2023-04-01T22:32:50;99648.58;;;6.75;84.22
60920;BME280;59039;52.108;19.942;2023-04-01T22:38:20;99656.05;;;6.76;84.64
60920;BME280;59039;52.108;19.942;2023-04-01T22:46:49;99664.61;;;6.75;84.57
60920;BME280;59039;52.108;19.942;2023-04-01T22:49:43;99666.58;;;6.75;84.56
60920;BME280;59039;52.108;19.942;2023-04-01T22:52:32;99668.29;;;6.74;84.05
60920;BME280;59039;52.108;19.942;2023-04-01T22:55:04;99670.55;;;6.69;84.56